Time;durP1;ratioP1;P1;durP2;ratioP2;P2;SDS_P1;SDS_P2;PMS_P1;PMS_P2;Temp;Humidity;BMP_temperature;BMP_pressure;BME280_temperature;BME280_humidity;BME280_pressure;Samples;Min_cycle;Max_cycle;Signal;HPM_P1;HPM_P2
2024/02/10 00:01:24;;;;;;;31.38;13.20;;;;;;;;;;12795626;23;20388;-88
2024/02/10 00:06:28;;;;;;;30.67;13.68;;;;;;;;;;12816735;23;21211;-89
2024/02/10 00:11:31;;;;;;;28.50;13.97;;;;;;;;;;12808761;23;20411;-89
2024/02/10 00:16:34;;;;;;;26.03;13.77;;;;;;;;;;12806941;23;20402;-89
2024/02/10 00:21:38;;;;;;;28.67;12.75;;;;;;;;;;12796175;23;20766;-89
2024/02/10 00:26:40;;;;;;;22.98;12.68;;;;;;;;;;12816107;23;20368;-89
2024/02/10 00:31:43;;;;;;;26.42;13.23;;;;;;;;;;12794925;23;20372;-88
2024/02/10 00:36:48;;;;;;;27.80;12.80;;;;;;;;;;12795213;23;20860;-89
2024/02/10 00:41:52;;;;;;;23.30;12.43;;;;;;;;;;12795835;23;20712;-89
2024/02/10 00:46:57;;;;;;;23.17;12.45;;;;;;;;;;12795923;23;20911;-89
2024/02/10 00:52:01;;;;;;;23.80;12.70;;;;;;;;;;12794789;23;20465;-89
2024/02/10 00:57:10;;;;;;;24.10;12.38;;;;;;;;;;12795282;23;20372;-88
2024/02/10 01:02:17;;;;;;;26.30;12.93;;;;;;;;;;12797970;23;20915;-88
2024/02/10 01:07:23;;;;;;;29.58;14.25;;;;;;;;;;12801025;23;20356;-88
2024/02/10 01:12:25;;;;;;;25.52;12.50;;;;;;;;;;12805737;23;20450;-89
2024/02/10 01:17:28;;;;;;;27.52;12.68;;;;;;;;;;12807318;23;20700;-88
2024/02/10 01:22:31;;;;;;;24.13;12.65;;;;;;;;;;12798846;23;20387;-88
2024/02/10 01:27:34;;;;;;;25.00;13.60;;;;;;;;;;12818964;23;20403;-89
2024/02/10 01:32:37;;;;;;;27.20;12.88;;;;;;;;;;12798542;23;20438;-89
2024/02/10 01:37:40;;;;;;;27.38;11.63;;;;;;;;;;12809969;23;20392;-89
2024/02/10 01:42:44;;;;;;;27.15;12.20;;;;;;;;;;12799484;23;20411;-87
2024/02/10 01:47:47;;;;;;;21.40;11.07;;;;;;;;;;12796089;23;20852;-90
2024/02/10 01:52:51;;;;;;;22.73;9.35;;;;;;;;;;12812678;23;20372;-89
2024/02/10 01:57:58;;;;;;;18.73;8.70;;;;;;;;;;12818928;23;20372;-89
2024/02/10 02:03:00;;;;;;;20.73;9.60;;;;;;;;;;12818357;23;20403;-89
2024/02/10 02:08:05;;;;;;;21.87;9.17;;;;;;;;;;12797750;23;21127;-88
2024/02/10 02:13:08;;;;;;;22.40;9.00;;;;;;;;;;12796165;23;20696;-89
2024/02/10 02:18:11;;;;;;;20.05;8.52;;;;;;;;;;12797660;23;21033;-89
2024/02/10 02:23:18;;;;;;;22.15;8.48;;;;;;;;;;12818473;23;20422;-89
2024/02/10 02:28:23;;;;;;;21.42;8.00;;;;;;;;;;12817979;23;20367;-89
2024/02/10 02:33:25;;;;;;;30.90;8.10;;;;;;;;;;12818165;23;20363;-88
2024/02/10 02:38:29;;;;;;;23.73;9.37;;;;;;;;;;12797152;23;20847;-89
2024/02/10 02:43:35;;;;;;;19.42;8.57;;;;;;;;;;12798121;23;20379;-89
2024/02/10 02:48:38;;;;;;;19.00;9.02;;;;;;;;;;12806749;23;20689;-88
2024/02/10 02:53:42;;;;;;;18.73;9.68;;;;;;;;;;12800792;23;20821;-89
2024/02/10 02:58:46;;;;;;;20.33;9.07;;;;;;;;;;12795822;23;20383;-87
2024/02/10 03:03:50;;;;;;;20.17;9.67;;;;;;;;;;12797035;23;20372;-89
2024/02/10 03:08:54;;;;;;;17.23;9.02;;;;;;;;;;12796306;23;20360;-89
2024/02/10 03:14:02;;;;;;;17.90;9.40;;;;;;;;;;12792778;23;20383;-89
2024/02/10 03:19:05;;;;;;;19.52;9.25;;;;;;;;;;12793560;23;20445;-90
2024/02/10 03:24:09;;;;;;;18.20;9.02;;;;;;;;;;12816701;23;20414;-90
2024/02/10 03:29:11;;;;;;;19.73;8.27;;;;;;;;;;12795874;23;20836;-89
2024/02/10 03:34:14;;;;;;;16.90;8.03;;;;;;;;;;12794859;23;20372;-89
2024/02/10 03:39:19;;;;;;;15.33;7.53;;;;;;;;;;12796302;23;20380;-89
2024/02/10 03:44:22;;;;;;;14.63;7.87;;;;;;;;;;12820038;23;20395;-90
2024/02/10 03:49:24;;;;;;;18.50;7.67;;;;;;;;;;12812406;23;20410;-89
2024/02/10 03:54:30;;;;;;;13.57;6.93;;;;;;;;;;12800261;23;20448;-89
2024/02/10 03:59:33;;;;;;;13.77;7.17;;;;;;;;;;12798609;23;20446;-89
2024/02/10 04:04:36;;;;;;;13.97;6.60;;;;;;;;;;12797820;23;20483;-88
2024/02/10 04:09:42;;;;;;;16.00;7.60;;;;;;;;;;12816380;23;20392;-89
2024/02/10 04:14:44;;;;;;;16.40;7.67;;;;;;;;;;12795019;23;20372;-89
2024/02/10 04:19:46;;;;;;;15.73;7.50;;;;;;;;;;12794934;23;20387;-89
2024/02/10 04:24:53;;;;;;;13.80;6.63;;;;;;;;;;12816031;23;20360;-89
2024/02/10 04:29:55;;;;;;;19.27;7.88;;;;;;;;;;12794796;23;20752;-89
2024/02/10 04:34:58;;;;;;;13.52;7.57;;;;;;;;;;12794275;23;20435;-90
2024/02/10 04:40:02;;;;;;;16.20;6.97;;;;;;;;;;12795292;23;20998;-89
2024/02/10 04:45:05;;;;;;;14.55;7.38;;;;;;;;;;12809238;23;20433;-88
2024/02/10 04:50:08;;;;;;;15.43;7.25;;;;;;;;;;12796117;23;20422;-89
2024/02/10 04:55:13;;;;;;;14.15;6.97;;;;;;;;;;12807118;23;20376;-88
2024/02/10 05:00:17;;;;;;;14.17;6.90;;;;;;;;;;12833753;23;20379;-89
2024/02/10 05:05:20;;;;;;;15.18;6.85;;;;;;;;;;12801995;23;20368;-89
2024/02/10 05:10:24;;;;;;;11.07;6.53;;;;;;;;;;12794962;23;20759;-89
2024/02/10 05:15:27;;;;;;;12.13;6.50;;;;;;;;;;12794011;23;20446;-89
2024/02/10 05:20:29;;;;;;;13.65;6.50;;;;;;;;;;12797452;23;20383;-88
2024/02/10 05:25:34;;;;;;;12.17;6.57;;;;;;;;;;12815529;23;20689;-89
2024/02/10 05:30:37;;;;;;;12.20;6.53;;;;;;;;;;12814649;23;20815;-89
2024/02/10 05:35:39;;;;;;;14.57;7.90;;;;;;;;;;12793687;23;20403;-89
2024/02/10 05:40:43;;;;;;;12.73;7.73;;;;;;;;;;12809379;23;20379;-88
2024/02/10 05:45:45;;;;;;;11.43;7.32;;;;;;;;;;12794401;23;20368;-89
2024/02/10 05:50:50;;;;;;;8.90;6.18;;;;;;;;;;12793774;23;20363;-89
2024/02/10 05:55:54;;;;;;;12.07;7.38;;;;;;;;;;12796529;23;20426;-88
2024/02/10 06:00:58;;;;;;;10.90;6.10;;;;;;;;;;12797184;23;20445;-89
2024/02/10 06:06:05;;;;;;;8.13;4.78;;;;;;;;;;12800210;23;20368;-89
2024/02/10 06:11:09;;;;;;;8.70;4.82;;;;;;;;;;12822118;23;20355;-89
2024/02/10 06:16:11;;;;;;;10.18;4.20;;;;;;;;;;12798998;23;20376;-88
2024/02/10 06:21:15;;;;;;;10.83;5.03;;;;;;;;;;12797253;23;20809;-88
2024/02/10 06:26:19;;;;;;;8.63;4.53;;;;;;;;;;12795781;23;20371;-89
2024/02/10 06:31:25;;;;;;;7.90;4.70;;;;;;;;;;12798257;23;20380;-88
2024/02/10 06:36:29;;;;;;;7.70;4.30;;;;;;;;;;12806031;23;20403;-88
2024/02/10 06:41:33;;;;;;;8.88;4.38;;;;;;;;;;12800721;23;20388;-89
2024/02/10 06:46:35;;;;;;;6.80;3.93;;;;;;;;;;12812737;23;20391;-87
2024/02/10 06:51:38;;;;;;;7.73;4.67;;;;;;;;;;12793962;23;20367;-90
2024/02/10 06:56:44;;;;;;;8.67;4.07;;;;;;;;;;12788295;23;20434;-90
2024/02/10 07:01:52;;;;;;;8.77;3.83;;;;;;;;;;12811260;23;20384;-90
2024/02/10 07:06:54;;;;;;;4.95;3.65;;;;;;;;;;12790629;23;20419;-90
2024/02/10 07:11:58;;;;;;;6.43;3.90;;;;;;;;;;12787524;23;20897;-89
2024/02/10 07:17:04;;;;;;;7.40;3.78;;;;;;;;;;12787967;23;20902;-89
2024/02/10 07:22:07;;;;;;;9.77;4.47;;;;;;;;;;12794705;23;20395;-89
2024/02/10 07:27:11;;;;;;;5.68;4.05;;;;;;;;;;12796013;23;20364;-91
2024/02/10 07:32:17;;;;;;;7.40;3.90;;;;;;;;;;12798733;23;20376;-89
2024/02/10 07:37:19;;;;;;;6.67;3.90;;;;;;;;;;12816056;23;20756;-90
2024/02/10 07:42:23;;;;;;;6.93;4.13;;;;;;;;;;12795998;23;20388;-91
2024/02/10 07:47:26;;;;;;;7.20;4.05;;;;;;;;;;12796585;23;20372;-90
2024/02/10 07:52:30;;;;;;;8.37;4.37;;;;;;;;;;12801001;23;20418;-89
2024/02/10 07:57:34;;;;;;;11.15;4.60;;;;;;;;;;12816072;23;20418;-91
2024/02/10 08:02:36;;;;;;;10.68;4.57;;;;;;;;;;12797081;23;20395;-90
2024/02/10 10:07:20;;;;;;;14.73;6.05;;;;;;;;;;13082989;22;2034616;-76
2024/02/10 10:12:22;;;;;;;10.50;5.78;;;;;;;;;;13171356;22;20362;-85
2024/02/10 10:17:35;;;;;;;10.20;5.07;;;;;;;;;;13172476;22;20418;-83
2024/02/10 10:22:40;;;;;;;10.00;6.22;;;;;;;;;;13170183;22;20391;-84
2024/02/10 10:27:47;;;;;;;14.48;6.65;;;;;;;;;;13169880;22;20381;-85
2024/02/10 10:32:53;;;;;;;15.23;7.60;;;;;;;;;;13171321;22;20359;-83
2024/02/10 10:37:56;;;;;;;15.88;6.93;;;;;;;;;;13161414;22;20735;-85
2024/02/10 10:43:01;;;;;;;16.02;7.55;;;;;;;;;;13162599;22;20697;-83
2024/02/10 10:48:03;;;;;;;13.98;7.05;;;;;;;;;;13160429;22;20458;-83
2024/02/10 10:53:09;;;;;;;13.15;6.22;;;;;;;;;;13160625;22;21109;-83
2024/02/10 10:58:16;;;;;;;12.75;5.97;;;;;;;;;;13154425;22;20427;-83
2024/02/10 11:03:22;;;;;;;12.80;6.22;;;;;;;;;;13155604;22;20426;-84
2024/02/10 11:08:27;;;;;;;13.63;6.60;;;;;;;;;;13158287;22;20381;-83
2024/02/10 11:13:30;;;;;;;11.75;6.05;;;;;;;;;;13159313;22;20377;-83
2024/02/10 11:18:37;;;;;;;16.75;6.78;;;;;;;;;;13157520;22;20374;-83
2024/02/10 11:23:41;;;;;;;16.67;6.38;;;;;;;;;;13155704;22;20434;-82
2024/02/10 11:28:43;;;;;;;15.50;7.55;;;;;;;;;;13159440;22;20389;-82
2024/02/10 11:33:46;;;;;;;15.02;6.53;;;;;;;;;;13155948;22;20377;-82
2024/02/10 11:38:50;;;;;;;13.67;6.53;;;;;;;;;;13156712;22;20477;-82
2024/02/10 11:43:52;;;;;;;14.02;6.43;;;;;;;;;;13158168;22;20358;-82
2024/02/10 11:49:00;;;;;;;10.80;6.22;;;;;;;;;;13159075;22;20430;-82
2024/02/10 11:54:04;;;;;;;17.25;6.47;;;;;;;;;;13156355;22;20399;-82
2024/02/10 11:59:06;;;;;;;17.33;6.97;;;;;;;;;;13157372;22;20370;-82
2024/02/10 12:04:18;;;;;;;15.75;7.55;;;;;;;;;;13156145;22;20702;-84
2024/02/10 12:09:22;;;;;;;16.33;6.97;;;;;;;;;;13155140;22;20370;-83
2024/02/10 12:14:25;;;;;;;16.10;6.77;;;;;;;;;;13152406;22;20381;-83
2024/02/10 12:19:28;;;;;;;16.40;7.20;;;;;;;;;;13155220;22;20458;-81
2024/02/10 12:24:32;;;;;;;18.60;8.13;;;;;;;;;;13169165;22;20373;-82
2024/02/10 12:29:38;;;;;;;15.57;8.23;;;;;;;;;;13154517;22;20527;-82
2024/02/10 12:34:40;;;;;;;18.90;8.27;;;;;;;;;;13151778;22;20845;-83
2024/02/10 12:39:44;;;;;;;16.00;7.60;;;;;;;;;;13148637;22;20844;-82
2024/02/10 12:44:47;;;;;;;16.05;7.80;;;;;;;;;;13145164;22;20373;-83
2024/02/10 12:49:50;;;;;;;17.38;7.93;;;;;;;;;;13148934;22;20374;-82
2024/02/10 12:54:54;;;;;;;15.05;8.00;;;;;;;;;;13150385;22;20381;-84
2024/02/10 12:59:58;;;;;;;13.87;7.07;;;;;;;;;;13154979;22;20378;-83
2024/02/10 13:05:00;;;;;;;13.10;7.07;;;;;;;;;;13152513;22;20430;-83
2024/02/10 13:10:18;;;;;;;15.33;8.30;;;;;;;;;;13156100;22;20438;-82
2024/02/10 13:15:23;;;;;;;12.32;7.78;;;;;;;;;;13156278;22;20807;-82
2024/02/10 13:20:28;;;;;;;14.83;8.10;;;;;;;;;;13158376;22;20369;-81
2024/02/10 13:25:32;;;;;;;13.50;7.45;;;;;;;;;;13154760;22;20377;-81
2024/02/10 13:30:36;;;;;;;14.83;8.57;;;;;;;;;;13154848;22;20381;-81
2024/02/10 13:35:40;;;;;;;16.85;8.18;;;;;;;;;;13157033;22;20450;-83
2024/02/10 14:12:53;;;;;;;21.52;8.00;;;;;;;;;;13179535;22;20442;-84
2024/02/10 14:17:58;;;;;;;19.53;7.67;;;;;;;;;;13161137;22;20381;-84
2024/02/10 14:23:02;;;;;;;19.08;7.55;;;;;;;;;;13161680;22;20373;-83
2024/02/10 14:28:10;;;;;;;13.93;7.57;;;;;;;;;;13161204;22;20377;-82
2024/02/10 14:33:13;;;;;;;13.85;8.55;;;;;;;;;;13160569;22;20373;-82
2024/02/10 14:38:27;;;;;;;21.30;9.57;;;;;;;;;;13156692;22;20848;-82
2024/02/10 14:43:32;;;;;;;17.63;8.77;;;;;;;;;;13157082;22;20538;-82
2024/02/10 14:48:34;;;;;;;17.80;9.10;;;;;;;;;;13152087;22;20430;-82
2024/02/10 14:53:38;;;;;;;14.90;9.53;;;;;;;;;;13155012;22;21103;-82
2024/02/10 14:58:45;;;;;;;14.65;9.07;;;;;;;;;;13154401;22;20427;-82
2024/02/10 15:03:47;;;;;;;15.33;9.10;;;;;;;;;;13156252;22;20373;-82
2024/02/10 15:08:50;;;;;;;17.17;8.67;;;;;;;;;;13154358;22;20451;-81
2024/02/10 15:13:54;;;;;;;19.20;9.48;;;;;;;;;;13156051;22;20398;-81
2024/02/10 15:18:58;;;;;;;18.70;9.40;;;;;;;;;;13152378;22;20354;-80
2024/02/10 15:24:09;;;;;;;16.83;9.63;;;;;;;;;;13145477;22;20403;-80
2024/02/10 15:29:13;;;;;;;16.63;8.88;;;;;;;;;;13144012;22;20462;-80
2024/02/10 15:34:15;;;;;;;19.25;9.65;;;;;;;;;;13152876;22;20852;-81
2024/02/10 15:39:18;;;;;;;21.05;9.55;;;;;;;;;;13151677;22;20377;-80
2024/02/10 15:44:22;;;;;;;20.73;9.43;;;;;;;;;;13152853;22;20377;-81
2024/02/10 15:49:24;;;;;;;19.35;9.88;;;;;;;;;;13150135;22;20438;-80
2024/02/10 15:54:26;;;;;;;17.05;9.45;;;;;;;;;;13154550;22;20411;-80
2024/02/10 15:59:32;;;;;;;22.30;10.20;;;;;;;;;;13153942;22;20377;-81
2024/02/10 16:04:36;;;;;;;18.15;10.02;;;;;;;;;;13154287;22;20403;-81
2024/02/10 16:09:39;;;;;;;20.38;9.95;;;;;;;;;;13151629;22;20378;-81
2024/02/10 16:14:43;;;;;;;19.33;9.82;;;;;;;;;;13151824;22;20369;-80
2024/02/10 16:19:48;;;;;;;19.90;10.53;;;;;;;;;;13148571;22;20418;-81
2024/02/10 16:24:51;;;;;;;20.63;11.07;;;;;;;;;;13149261;22;20366;-81
2024/02/10 16:29:55;;;;;;;23.40;10.80;;;;;;;;;;13149310;22;20853;-81
2024/02/10 16:34:58;;;;;;;24.85;12.05;;;;;;;;;;13154352;22;20381;-81
2024/02/10 16:40:01;;;;;;;22.03;11.03;;;;;;;;;;13156848;22;20374;-80
2024/02/10 16:45:05;;;;;;;20.97;10.57;;;;;;;;;;13159465;22;20370;-80
2024/02/10 16:50:10;;;;;;;25.60;10.23;;;;;;;;;;13159439;22;20385;-80
2024/02/10 16:55:14;;;;;;;28.77;11.57;;;;;;;;;;13154686;22;20426;-81
2024/02/10 17:00:24;;;;;;;27.15;12.05;;;;;;;;;;13156885;22;20434;-81
2024/02/10 17:05:28;;;;;;;26.08;10.25;;;;;;;;;;13157409;22;20683;-82
2024/02/10 17:10:34;;;;;;;28.40;10.98;;;;;;;;;;13161728;22;20377;-82
2024/02/10 17:15:41;;;;;;;22.30;9.77;;;;;;;;;;13161076;22;20411;-76
2024/02/10 17:20:46;;;;;;;19.77;9.60;;;;;;;;;;13164191;22;20398;-75
2024/02/10 17:25:49;;;;;;;30.45;10.85;;;;;;;;;;13164572;22;20415;-75
2024/02/10 17:30:52;;;;;;;22.88;10.40;;;;;;;;;;13164056;22;20634;-75
2024/02/10 17:35:55;;;;;;;31.95;11.57;;;;;;;;;;13164089;22;20400;-75
2024/02/10 17:40:57;;;;;;;27.63;10.82;;;;;;;;;;13188766;22;20743;-78
2024/02/10 17:46:01;;;;;;;30.48;11.30;;;;;;;;;;13166842;22;20357;-77
2024/02/10 17:51:06;;;;;;;30.00;10.07;;;;;;;;;;13165298;22;20377;-77
2024/02/10 17:56:11;;;;;;;21.52;8.43;;;;;;;;;;13167210;22;20357;-77
2024/02/10 18:01:21;;;;;;;26.27;10.17;;;;;;;;;;13167195;22;20387;-77
2024/02/10 18:06:25;;;;;;;29.37;10.77;;;;;;;;;;13164380;22;20402;-76
2024/02/10 18:11:27;;;;;;;22.60;10.02;;;;;;;;;;13164909;22;20403;-76
2024/02/10 18:16:31;;;;;;;23.73;9.90;;;;;;;;;;13167679;22;20391;-76
2024/02/10 18:21:33;;;;;;;26.73;9.77;;;;;;;;;;13166178;22;20886;-76
2024/02/10 18:26:39;;;;;;;26.60;10.07;;;;;;;;;;13167373;22;20905;-76
2024/02/10 18:31:43;;;;;;;29.05;9.23;;;;;;;;;;13166632;22;20403;-78
2024/02/10 18:36:48;;;;;;;26.07;9.90;;;;;;;;;;13167479;22;20414;-81
2024/02/10 18:41:52;;;;;;;24.97;8.40;;;;;;;;;;13164161;22;20366;-84
2024/02/10 18:46:56;;;;;;;30.33;9.63;;;;;;;;;;13167507;22;20479;-82
2024/02/10 18:52:03;;;;;;;22.98;8.50;;;;;;;;;;13167727;22;20378;-80
2024/02/10 18:57:07;;;;;;;30.15;10.25;;;;;;;;;;13165041;22;20387;-82
2024/02/10 19:02:16;;;;;;;28.45;8.93;;;;;;;;;;13166726;22;20354;-82
2024/02/10 19:07:21;;;;;;;30.98;8.70;;;;;;;;;;13164679;22;20414;-81
2024/02/10 19:12:23;;;;;;;32.17;8.75;;;;;;;;;;13155803;22;20377;-80
2024/02/10 19:17:27;;;;;;;28.92;7.85;;;;;;;;;;13154220;22;20391;-82
2024/02/10 19:22:30;;;;;;;32.93;8.17;;;;;;;;;;13157260;22;20414;-81
2024/02/10 19:27:34;;;;;;;28.15;7.97;;;;;;;;;;13157520;22;20817;-81
2024/02/10 19:32:40;;;;;;;30.15;10.13;;;;;;;;;;13161134;22;20905;-84
2024/02/10 19:37:45;;;;;;;30.95;8.73;;;;;;;;;;13161177;22;20454;-84
2024/02/10 19:42:48;;;;;;;33.65;7.82;;;;;;;;;;13160549;22;20385;-84
2024/02/10 19:47:53;;;;;;;34.05;8.27;;;;;;;;;;13159967;22;20377;-81
2024/02/10 19:52:56;;;;;;;31.33;8.10;;;;;;;;;;13159321;22;20434;-80
2024/02/10 19:57:58;;;;;;;35.75;8.68;;;;;;;;;;13159219;22;20369;-81
2024/02/10 20:03:02;;;;;;;36.13;8.63;;;;;;;;;;13159294;22;20434;-81
2024/02/10 20:08:07;;;;;;;40.95;11.43;;;;;;;;;;13157448;22;20377;-81
2024/02/10 20:13:10;;;;;;;33.90;10.70;;;;;;;;;;13131183;22;20756;-83
2024/02/10 20:18:13;;;;;;;38.33;10.98;;;;;;;;;;13160413;22;20369;-84
2024/02/10 20:23:17;;;;;;;35.15;10.23;;;;;;;;;;13160390;22;20357;-81
2024/02/10 20:28:20;;;;;;;40.20;11.32;;;;;;;;;;13159490;22;20734;-83
2024/02/10 20:33:23;;;;;;;39.20;10.43;;;;;;;;;;13157798;22;20382;-84
2024/02/10 20:38:26;;;;;;;33.00;10.00;;;;;;;;;;13159412;22;20863;-81
2024/02/10 20:43:28;;;;;;;31.60;9.80;;;;;;;;;;13159590;22;20373;-83
2024/02/10 20:48:33;;;;;;;38.72;9.68;;;;;;;;;;13158960;22;20427;-83
2024/02/10 20:53:38;;;;;;;36.50;10.07;;;;;;;;;;13158968;22;20381;-83
2024/02/10 20:58:41;;;;;;;34.33;10.50;;;;;;;;;;13159639;22;20771;-83
2024/02/10 21:03:49;;;;;;;37.03;11.00;;;;;;;;;;13156522;22;20377;-83
2024/02/10 21:08:51;;;;;;;38.88;9.75;;;;;;;;;;13157891;22;20377;-82
2024/02/10 21:13:53;;;;;;;32.17;8.73;;;;;;;;;;13160185;22;20377;-83
2024/02/10 21:18:57;;;;;;;38.83;8.38;;;;;;;;;;13165591;22;20377;-83
2024/02/10 21:24:01;;;;;;;28.88;8.65;;;;;;;;;;13167413;22;20369;-81
2024/02/10 21:29:05;;;;;;;31.27;9.47;;;;;;;;;;13164789;22;20370;-83
2024/02/10 21:34:10;;;;;;;32.85;8.23;;;;;;;;;;13164164;22;20382;-83
2024/02/10 21:39:14;;;;;;;31.17;8.20;;;;;;;;;;13171805;22;20365;-84
2024/02/10 21:44:17;;;;;;;29.10;7.72;;;;;;;;;;13164808;22;20414;-83
2024/02/10 21:49:20;;;;;;;31.15;7.25;;;;;;;;;;13166359;22;20458;-83
2024/02/10 21:54:24;;;;;;;30.97;7.40;;;;;;;;;;13169323;22;20780;-80
2024/02/10 21:59:27;;;;;;;25.75;6.80;;;;;;;;;;13167905;22;20685;-84
2024/02/10 22:04:32;;;;;;;22.58;6.47;;;;;;;;;;13167210;22;20403;-84
2024/02/10 22:09:34;;;;;;;23.10;5.97;;;;;;;;;;13169152;22;20771;-84
2024/02/10 22:14:37;;;;;;;20.37;6.30;;;;;;;;;;13173466;22;20431;-83
2024/02/10 22:19:40;;;;;;;27.85;6.07;;;;;;;;;;13168628;22;20407;-81
2024/02/10 22:24:43;;;;;;;24.77;7.30;;;;;;;;;;13167445;22;20454;-81
2024/02/10 22:29:46;;;;;;;24.40;6.57;;;;;;;;;;13167713;22;20361;-82
2024/02/10 22:34:49;;;;;;;20.27;6.47;;;;;;;;;;13171327;22;20747;-81
2024/02/10 22:39:52;;;;;;;22.50;6.75;;;;;;;;;;13172346;22;20845;-84
2024/02/10 22:44:54;;;;;;;19.60;6.85;;;;;;;;;;13172660;22;20407;-84
2024/02/10 22:49:58;;;;;;;17.55;5.75;;;;;;;;;;13173194;22;20362;-84
2024/02/10 22:55:06;;;;;;;19.47;6.20;;;;;;;;;;13169620;22;20443;-81
2024/02/10 23:00:13;;;;;;;10.93;5.40;;;;;;;;;;13171885;22;20373;-81
2024/02/10 23:05:19;;;;;;;14.57;6.03;;;;;;;;;;13171581;22;20361;-81
2024/02/10 23:10:22;;;;;;;11.38;4.60;;;;;;;;;;13169255;22;20415;-84
2024/02/10 23:15:27;;;;;;;14.87;4.87;;;;;;;;;;13168876;22;20381;-82
2024/02/10 23:20:33;;;;;;;8.50;4.00;;;;;;;;;;13163184;22;20353;-82
2024/02/10 23:25:35;;;;;;;11.07;4.20;;;;;;;;;;13165852;22;20422;-85
2024/02/10 23:54:51;;;;;;;11.02;4.63;;;;;;;;;;13160990;22;20438;-84
2024/02/10 23:59:54;;;;;;;17.08;4.13;;;;;;;;;;13106278;22;20359;-84
